Roan Mountain, TN

6:09 AM EDT on August 31, 2015 (GMT -0400)
Ripshin Ridge | | Change Station
CLOSE
Current Station
Personal Weather Station
Location: Roan Mountain, TN
Elevation: 3572 ft
Nearby Weather Stations

Elev 3572 ft 36.17 °N, 82.15 °W | Updated 9 minutes ago

Overcast
Overcast
58.4 °F
Feels Like 58.4 °F
N
0.0
Wind Variable Wind from West
Gusts 3.0 mph

Today
High -- | Low -- °F
--% Chance of Precip.
Yesterday
High -- | Low -- °F
Precip. -- in
6:59 AM 7:58 PM
Waning Gibbous, 96% visible
Pressure 30.16 in
Visibility 6.0 miles
Clouds Few 4900 ft
Mostly Cloudy 7000 ft
Dew Point 58 °F
Humidity 97%
Rainfall 0.11 in
Snow Depth Not available.
UV 0 out of 12
Pollen 7.40 out of 12
Air Quality Not available.
Flu Activity Not available.
METAR K0A9 310915Z AUTO 00000KT 6SM -RA BR FEW049 BKN070 17/17 A3016 RMK
Pressure 30.16 in
Visibility 6.0 miles
Clouds Few 4900 ft
Mostly Cloudy 7000 ft
Dew Point 58 °F
Humidity 97%
Rainfall 0.11 in
Snow Depth Not available.
UV 0 out of 12
Pollen 7.40 out of 12
Air Quality Not available.
Flu Activity Not available.
METAR K0A9 310915Z AUTO 00000KT 6SM -RA BR FEW049 BKN070 17/17 A3016 RMK

10-Day Weather Forecast

×

Almanac

Astronomy

Aug. 31, 2015 Rise Set
Actual Time
Civil Twilight
Nautical Twilight
Astronomical Twilight
Moon
Length of Visible Light
Length of Day
Tomorrow will be .
, % of the Moon is Illuminated

Today's Extremes

State Highs State Lows

Community

WunderPhotos

Upload Photos

1,851,229 photos uploaded!

WunderBlogs® & News

Nearby

Air Quality

  Air Quality AQ Index Pollutant
Not available.

Snow Depth

Station Depth Elevation

Earthquake Activity

City Distance Mag. Time & Date
Minimum magnitude displayed is 2.5.

Coastal Water Temperatures

Place Temperature

Stations

Nearby Weather Stations

Station Location Temp. Windchill Dew Point Humidity Wind Precip. Elev Updated Type